Time;durP1;ratioP1;P1;durP2;ratioP2;P2;SDS_P1;SDS_P2;PMS_P1;PMS_P2;Temp;Humidity;BMP_temperature;BMP_pressure;BME280_temperature;BME280_humidity;BME280_pressure;Samples;Min_cycle;Max_cycle;Signal;HPM_P1;HPM_P2
2020/12/14 03:46:25;;;;;;;7.50;6.05;;;1.80;99.90;;;;;;5966698;23;89711;31
2020/12/14 03:48:55;;;;;;;9.07;4.82;;;1.90;99.90;;;;;;4864655;29;86665;-80
2020/12/14 03:51:22;;;;;;;8.05;5.90;;;1.80;99.90;;;;;;4863697;29;88021;-79
2020/12/14 03:53:48;;;;;;;7.13;5.85;;;1.80;99.90;;;;;;4876717;29;86851;-80
2020/12/14 03:56:17;;;;;;;8.25;5.97;;;1.80;99.90;;;;;;4868816;29;86764;-79
2020/12/14 03:58:43;;;;;;;9.23;6.57;;;1.80;99.90;;;;;;4876654;29;87831;-80
2020/12/14 04:01:11;;;;;;;6.88;6.18;;;1.80;99.90;;;;;;4862782;29;86978;-81
2020/12/14 04:03:36;;;;;;;7.90;5.95;;;1.60;99.90;;;;;;4850588;29;87030;-79
2020/12/14 04:06:02;;;;;;;7.50;5.80;;;1.60;99.90;;;;;;4860257;29;86894;-79
2020/12/14 04:08:27;;;;;;;11.55;7.45;;;1.60;99.90;;;;;;4852911;29;87163;-81
2020/12/14 04:10:53;;;;;;;7.93;5.78;;;1.50;99.90;;;;;;4853858;29;87160;-80
2020/12/14 04:13:19;;;;;;;7.80;4.75;;;1.50;99.90;;;;;;4852301;29;86798;-79
2020/12/14 04:15:44;;;;;;;7.65;5.28;;;1.50;99.90;;;;;;4851738;29;88176;-79
2020/12/14 04:18:10;;;;;;;8.40;4.93;;;1.50;99.90;;;;;;4850579;29;87793;-79
2020/12/14 04:20:36;;;;;;;11.00;5.97;;;1.50;99.90;;;;;;4850793;29;86894;-78
2020/12/14 04:23:02;;;;;;;7.28;6.15;;;1.50;99.90;;;;;;4852558;29;86842;-78
2020/12/14 04:25:27;;;;;;;7.38;6.45;;;1.50;99.90;;;;;;4851001;29;87123;-78
2020/12/14 04:27:58;;;;;;;7.95;5.35;;;1.50;99.90;;;;;;4852506;29;86974;-78
2020/12/14 04:30:24;;;;;;;12.55;7.13;;;1.50;99.90;;;;;;4851228;29;87147;-79
2020/12/14 04:32:49;;;;;;;11.18;7.00;;;1.50;99.90;;;;;;4852609;29;85910;-80
2020/12/14 04:35:15;;;;;;;10.80;7.40;;;1.50;99.90;;;;;;4853208;29;86975;-78
2020/12/14 04:37:41;;;;;;;7.80;6.40;;;1.40;99.90;;;;;;4852641;29;87268;-78
2020/12/14 04:40:06;;;;;;;8.95;5.68;;;1.40;99.90;;;;;;4849913;29;87797;-81
2020/12/14 04:42:34;;;;;;;12.93;6.28;;;1.40;99.90;;;;;;4853190;29;87033;-78
2020/12/14 04:45:01;;;;;;;10.93;7.32;;;1.40;99.90;;;;;;4849347;29;87058;-81
2020/12/14 04:47:28;;;;;;;10.43;7.85;;;1.50;99.90;;;;;;4862796;29;87089;-81
2020/12/14 04:49:55;;;;;;;10.13;7.45;;;1.50;99.90;;;;;;4875768;28;86905;-78
2020/12/14 04:52:24;;;;;;;10.20;7.05;;;1.30;99.90;;;;;;4875159;28;86995;-78
2020/12/14 04:54:50;;;;;;;7.32;5.97;;;1.00;99.90;;;;;;4867419;28;86948;-79
2020/12/14 04:57:21;;;;;;;8.30;4.90;;;1.30;99.90;;;;;;4866294;28;88127;-78
2020/12/14 04:59:47;;;;;;;8.35;5.35;;;1.30;99.90;;;;;;4870907;29;86895;-79
2020/12/14 05:02:13;;;;;;;11.48;5.68;;;1.30;99.90;;;;;;4861383;28;87932;-78
2020/12/14 05:04:39;;;;;;;9.35;7.47;;;1.00;99.90;;;;;;4855691;28;91894;-78
2020/12/14 05:07:06;;;;;;;10.65;7.05;;;1.60;99.90;;;;;;4864076;28;87194;-79
2020/12/14 05:09:32;;;;;;;8.60;5.78;;;1.30;99.90;;;;;;4869554;29;87144;-79
2020/12/14 05:11:58;;;;;;;10.15;5.88;;;1.40;99.90;;;;;;4868683;29;87010;-79
2020/12/14 05:14:26;;;;;;;13.27;6.78;;;1.40;99.90;;;;;;4870128;28;87452;-79
2020/12/14 05:16:53;;;;;;;9.68;6.90;;;1.90;99.90;;;;;;4854396;29;88038;-79
2020/12/14 05:19:22;;;;;;;12.88;7.50;;;1.10;99.90;;;;;;4870107;29;86923;-79
2020/12/14 05:21:51;;;;;;;11.85;7.07;;;1.40;99.90;;;;;;4869853;28;86180;-80
2020/12/14 05:24:28;;;;;;;11.30;7.40;;;1.30;99.90;;;;;;4864493;28;87483;-78
2020/12/14 05:26:57;;;;;;;10.70;6.65;;;1.30;99.90;;;;;;4855993;29;86937;-79
2020/12/14 05:29:28;;;;;;;9.32;5.78;;;1.30;99.90;;;;;;4857359;29;87807;-79
2020/12/14 05:32:05;;;;;;;11.95;8.07;;;1.00;99.90;;;;;;4863961;28;86891;-78
2020/12/14 05:34:35;;;;;;;10.43;6.40;;;1.20;99.90;;;;;;4855106;28;87324;-78
2020/12/14 05:37:06;;;;;;;9.18;7.53;;;1.50;99.90;;;;;;4866130;28;87774;-80
2020/12/14 05:39:34;;;;;;;8.00;5.05;;;1.20;99.90;;;;;;4870057;28;86928;-79
2020/12/14 05:42:07;;;;;;;7.22;5.20;;;1.30;99.90;;;;;;4870787;29;87782;-79
2020/12/14 05:44:33;;;;;;;7.53;5.20;;;1.30;99.90;;;;;;4864840;28;88043;-79
2020/12/14 05:46:59;;;;;;;11.35;7.50;;;1.30;99.90;;;;;;4857776;29;86335;-80
2020/12/14 05:49:25;;;;;;;9.77;6.68;;;1.50;99.90;;;;;;4868605;29;86977;-79
2020/12/14 05:51:58;;;;;;;8.65;5.78;;;1.30;99.90;;;;;;4868590;28;86563;-80
2020/12/14 05:54:33;;;;;;;9.73;6.30;;;1.30;99.90;;;;;;4867954;29;88178;-78
2020/12/14 05:57:02;;;;;;;9.15;7.97;;;1.20;99.90;;;;;;4868441;29;88052;-78
2020/12/14 05:59:34;;;;;;;11.63;6.90;;;1.30;99.90;;;;;;4869581;29;86892;-81
2020/12/14 06:02:03;;;;;;;8.52;5.25;;;1.30;99.90;;;;;;4852034;29;88469;-81
2020/12/14 06:04:33;;;;;;;10.30;7.05;;;1.30;99.90;;;;;;4868051;29;87723;-81
2020/12/14 06:07:04;;;;;;;11.48;7.45;;;1.40;99.90;;;;;;4861347;28;86908;-81
2020/12/14 06:09:36;;;;;;;13.57;8.73;;;1.40;99.90;;;;;;4869113;29;87022;-80
2020/12/14 06:12:04;;;;;;;14.20;8.07;;;1.40;99.90;;;;;;4867992;29;86160;-81
2020/12/14 06:14:38;;;;;;;18.63;9.32;;;1.60;99.90;;;;;;4854617;29;87074;-78
2020/12/14 06:17:10;;;;;;;17.40;10.15;;;1.40;99.90;;;;;;4866677;28;88260;-82
2020/12/14 06:19:36;;;;;;;18.75;10.25;;;1.60;99.90;;;;;;4862198;29;87167;-79
2020/12/14 06:22:06;;;;;;;23.02;11.05;;;1.60;99.90;;;;;;4863352;29;86733;-78
2020/12/14 06:24:33;;;;;;;25.02;12.32;;;1.60;99.90;;;;;;4866090;29;88642;-80
2020/12/14 06:26:59;;;;;;;25.55;11.20;;;1.60;99.90;;;;;;4866819;29;87064;-79
2020/12/14 06:29:30;;;;;;;23.85;12.02;;;1.70;99.90;;;;;;4867518;29;86775;-79
2020/12/14 06:31:56;;;;;;;25.85;13.50;;;1.90;99.90;;;;;;4867282;29;86997;-79
2020/12/14 06:34:30;;;;;;;23.75;13.35;;;1.80;99.90;;;;;;4859299;28;87001;-81
2020/12/14 06:36:56;;;;;;;24.25;11.90;;;1.50;99.90;;;;;;4862525;29;87131;-79
2020/12/14 06:39:29;;;;;;;33.97;16.25;;;2.00;99.90;;;;;;4849802;29;86854;-78
2020/12/14 06:42:10;;;;;;;26.55;14.65;;;2.00;99.90;;;;;;4863452;29;87093;-80
2020/12/14 06:44:36;;;;;;;37.13;18.15;;;2.40;99.90;;;;;;4866929;29;89229;-78
2020/12/14 06:47:17;;;;;;;26.45;14.10;;;2.00;99.90;;;;;;4869778;28;88018;-80
2020/12/14 06:49:45;;;;;;;42.22;20.92;;;2.00;99.90;;;;;;4869735;28;86347;-80
2020/12/14 06:52:11;;;;;;;21.73;12.73;;;2.40;99.90;;;;;;4870341;29;86690;-80
2020/12/14 06:54:41;;;;;;;130.00;53.78;;;1.70;99.90;;;;;;4868274;29;87574;-80
2020/12/14 06:57:09;;;;;;;27.33;15.13;;;2.10;99.90;;;;;;4863819;28;87219;-80
2020/12/14 06:59:36;;;;;;;30.08;14.55;;;2.10;99.90;;;;;;4863773;29;86871;-79
2020/12/14 07:02:03;;;;;;;33.08;15.73;;;2.10;99.90;;;;;;4870365;29;86361;-78
2020/12/14 07:04:29;;;;;;;29.90;14.90;;;2.30;99.90;;;;;;4862793;29;87478;-78
2020/12/14 07:06:55;;;;;;;31.00;13.88;;;2.30;99.90;;;;;;4868659;29;86827;-80
2020/12/14 07:09:26;;;;;;;36.67;14.98;;;2.40;99.90;;;;;;4861018;29;88017;-79
2020/12/14 07:11:51;;;;;;;24.35;13.70;;;2.40;99.90;;;;;;4862086;28;87188;-78
2020/12/14 07:14:28;;;;;;;30.85;15.70;;;2.50;99.90;;;;;;4869703;29;87179;-79
2020/12/14 07:16:59;;;;;;;30.98;15.52;;;2.60;99.90;;;;;;4866378;29;86926;-77
2020/12/14 07:19:35;;;;;;;34.22;16.65;;;2.40;99.90;;;;;;4861403;29;86951;-80
2020/12/14 07:22:02;;;;;;;31.38;16.73;;;2.80;99.90;;;;;;4868890;28;87049;-79
2020/12/14 07:24:34;;;;;;;36.15;16.10;;;2.80;99.90;;;;;;4859711;29;87240;-79
2020/12/14 07:27:00;;;;;;;35.17;17.05;;;3.20;99.90;;;;;;4870466;29;87234;-78
2020/12/14 07:29:26;;;;;;;31.75;15.82;;;2.80;99.90;;;;;;4870065;29;86428;-79
2020/12/14 07:31:52;;;;;;;32.22;15.80;;;3.00;99.90;;;;;;4859101;28;86821;-78
2020/12/14 07:34:18;;;;;;;29.05;15.93;;;3.10;99.90;;;;;;4850642;29;87442;-79
2020/12/14 07:36:43;;;;;;;31.27;15.63;;;3.10;99.90;;;;;;4866785;28;88110;-81
2020/12/14 07:39:09;;;;;;;29.98;14.43;;;3.20;99.90;;;;;;4871057;29;86591;-79
2020/12/14 07:41:35;;;;;;;30.48;15.75;;;3.30;99.90;;;;;;4863877;28;87071;-81
2020/12/14 07:44:03;;;;;;;32.85;15.27;;;3.40;99.90;;;;;;4852048;29;86912;-82
2020/12/14 07:46:34;;;;;;;22.98;13.68;;;3.50;99.90;;;;;;4865993;29;86651;-81
2020/12/14 07:49:01;;;;;;;;;;;3.60;99.90;;;;;;4871924;29;86792;-78
2020/12/14 07:51:28;;;;;;;29.80;15.07;;;3.80;99.90;;;;;;4866863;28;86081;-81
2020/12/14 07:54:03;;;;;;;27.55;14.80;;;3.90;99.90;;;;;;4870560;28;87728;-79
2020/12/14 07:56:30;;;;;;;27.40;14.40;;;4.00;99.90;;;;;;4871561;29;88301;-80
2020/12/14 07:58:55;;;;;;;19.65;12.68;;;4.10;99.90;;;;;;4883587;29;87087;-79
2020/12/14 08:01:22;;;;;;;21.52;14.15;;;4.00;99.90;;;;;;4879342;29;86469;-79
2020/12/14 08:03:48;;;;;;;24.30;14.23;;;4.30;99.90;;;;;;4871175;28;87018;-80
2020/12/14 08:06:17;;;;;;;22.73;13.02;;;4.30;99.90;;;;;;4883676;29;86464;-79
2020/12/14 08:08:47;;;;;;;24.58;15.30;;;4.40;99.90;;;;;;4883301;29;86798;-81
2020/12/14 08:11:13;;;;;;;22.92;12.63;;;4.60;99.90;;;;;;4879842;29;86934;-80
2020/12/14 08:13:41;;;;;;;25.35;13.30;;;4.70;99.90;;;;;;4855087;29;87971;-80
2020/12/14 08:16:07;;;;;;;20.10;12.02;;;4.70;99.90;;;;;;4862113;29;86486;-80
2020/12/14 08:18:36;;;;;;;20.50;11.55;;;4.70;99.90;;;;;;4867755;29;86702;-79
2020/12/14 08:21:02;;;;;;;16.25;10.63;;;4.80;99.90;;;;;;4864727;29;86668;-80
2020/12/14 08:23:31;;;;;;;18.80;11.00;;;4.60;99.90;;;;;;4869451;29;88234;-78
2020/12/14 08:25:58;;;;;;;19.52;11.40;;;4.70;99.90;;;;;;4870779;29;87349;-78
2020/12/14 08:28:31;;;;;;;19.70;10.93;;;4.90;99.90;;;;;;4861754;29;86573;-81
2020/12/14 08:30:57;;;;;;;18.85;12.25;;;5.20;99.90;;;;;;4871410;29;86937;-79
2020/12/14 08:33:23;;;;;;;19.75;12.20;;;5.50;99.90;;;;;;4858173;29;87373;-79
2020/12/14 08:35:53;;;;;;;18.55;11.98;;;5.80;99.90;;;;;;4871057;29;88106;-83
2020/12/14 08:38:23;;;;;;;22.23;12.30;;;6.50;99.90;;;;;;4858736;29;86867;-79
2020/12/14 08:40:53;;;;;;;17.75;11.20;;;6.20;99.90;;;;;;4870937;29;86040;-79
2020/12/14 08:43:20;;;;;;;19.05;12.25;;;6.40;99.90;;;;;;4870680;29;87832;-80
2020/12/14 08:46:04;;;;;;;17.95;11.45;;;6.40;99.90;;;;;;4871199;29;86931;-78
2020/12/14 08:48:32;;;;;;;16.50;11.02;;;6.40;99.90;;;;;;4859899;29;88077;-81
2020/12/14 08:51:24;;;;;;;18.88;11.60;;;6.30;99.90;;;;;;4871236;29;87005;-80
2020/12/14 08:53:52;;;;;;;19.65;11.77;;;6.20;99.90;;;;;;4871624;29;87765;-82
2020/12/14 08:56:23;;;;;;;16.65;10.23;;;6.20;99.90;;;;;;4864878;29;87142;-81
2020/12/14 08:58:58;;;;;;;16.70;11.48;;;6.20;99.90;;;;;;4865437;29;86894;-77
2020/12/14 09:01:29;;;;;;;15.38;11.00;;;6.30;99.90;;;;;;4871518;29;86997;-81
2020/12/14 09:03:57;;;;;;;14.77;9.98;;;6.50;99.90;;;;;;4860073;29;86843;-80
2020/12/14 09:06:28;;;;;;;14.65;9.48;;;6.70;99.90;;;;;;4871907;29;87135;-79
2020/12/14 09:09:14;;;;;;;16.65;12.13;;;7.00;99.90;;;;;;4869756;29;86844;-81
2020/12/14 09:11:42;;;;;;;16.52;10.48;;;8.10;99.80;;;;;;4858584;29;86993;-80
2020/12/14 09:14:09;;;;;;;16.52;10.30;;;8.70;96.60;;;;;;4854786;29;87984;-80
2020/12/14 09:16:36;;;;;;;16.92;10.60;;;8.80;98.80;;;;;;4871407;29;87163;-82
2020/12/14 09:19:03;;;;;;;16.73;11.35;;;9.00;94.70;;;;;;4871187;29;87127;-81
2020/12/14 09:21:31;;;;;;;16.98;11.07;;;8.90;92.80;;;;;;4870745;29;88663;-80
2020/12/14 09:24:14;;;;;;;16.42;11.25;;;8.80;92.60;;;;;;4868311;29;86799;-80
2020/12/14 09:26:41;;;;;;;14.13;10.30;;;9.20;90.80;;;;;;4870034;29;87305;-80
2020/12/14 09:29:08;;;;;;;14.48;10.60;;;9.00;92.20;;;;;;4871884;29;86140;-81
2020/12/14 09:31:34;;;;;;;16.88;10.25;;;9.50;91.60;;;;;;4872012;28;86306;-81
2020/12/14 09:34:00;;;;;;;13.48;10.38;;;9.80;90.00;;;;;;4866620;28;86802;-81
2020/12/14 09:36:26;;;;;;;13.95;9.45;;;9.60;87.10;;;;;;4856731;29;86948;-81
2020/12/14 09:38:54;;;;;;;14.52;10.10;;;9.50;87.50;;;;;;4862203;29;87245;-81
2020/12/14 09:41:21;;;;;;;13.73;8.85;;;9.40;88.00;;;;;;4879725;29;86277;-78
2020/12/14 09:43:47;;;;;;;12.75;9.32;;;9.80;87.60;;;;;;4879752;28;87675;-80
2020/12/14 09:46:13;;;;;;;12.30;9.20;;;10.50;82.80;;;;;;4884740;28;87259;-80
2020/12/14 09:48:40;;;;;;;12.63;9.40;;;10.50;84.00;;;;;;4865984;29;86968;-81
2020/12/14 09:51:06;;;;;;;11.27;9.02;;;10.60;82.30;;;;;;4874899;29;86601;-80
2020/12/14 09:53:33;;;;;;;13.48;8.40;;;10.60;82.20;;;;;;4858812;29;87240;-82
2020/12/14 09:55:59;;;;;;;12.27;9.70;;;10.40;81.70;;;;;;4873564;29;86353;-81
2020/12/14 09:58:24;;;;;;;11.73;9.25;;;10.30;80.70;;;;;;4874384;29;86969;-81
2020/12/14 10:00:50;;;;;;;11.00;9.05;;;10.00;80.50;;;;;;4873657;29;86683;-81
2020/12/14 10:03:15;;;;;;;13.95;10.35;;;9.70;81.10;;;;;;4871626;29;88211;-82
2020/12/14 10:05:47;;;;;;;11.68;9.55;;;9.70;82.50;;;;;;4872167;29;88403;-82
2020/12/14 10:08:16;;;;;;;12.63;9.40;;;9.90;82.70;;;;;;4872818;29;86783;-82
2020/12/14 10:10:43;;;;;;;13.00;9.85;;;10.00;82.00;;;;;;4873582;29;86291;-81
2020/12/14 10:13:09;;;;;;;12.95;9.25;;;10.30;81.20;;;;;;4872237;29;87054;-81
2020/12/14 10:15:35;;;;;;;14.02;10.50;;;10.50;79.90;;;;;;4873010;29;86987;-81
2020/12/14 10:18:01;;;;;;;11.55;9.00;;;10.70;78.70;;;;;;4872824;29;87089;-81
2020/12/14 10:20:27;;;;;;;11.77;8.95;;;10.70;78.10;;;;;;4872044;29;86189;-81
2020/12/14 10:22:54;;;;;;;11.13;8.85;;;10.60;78.00;;;;;;4861082;29;86879;-81
2020/12/14 10:25:19;;;;;;;13.10;9.35;;;10.60;78.20;;;;;;4856774;28;89980;-82
2020/12/14 10:27:45;;;;;;;10.52;8.07;;;10.60;78.00;;;;;;4872865;29;87827;-82
2020/12/14 10:30:11;;;;;;;11.82;9.60;;;11.00;77.60;;;;;;4861311;29;87016;-82
2020/12/14 10:32:36;;;;;;;11.75;9.50;;;11.20;76.00;;;;;;4865971;29;86732;-82
2020/12/14 10:35:02;;;;;;;12.05;9.48;;;11.20;75.30;;;;;;4874942;29;86818;-82
2020/12/14 10:37:28;;;;;;;12.93;8.65;;;11.10;75.60;;;;;;4874779;29;86850;-81
2020/12/14 10:39:54;;;;;;;12.77;10.10;;;11.10;74.90;;;;;;4872559;29;87058;-82
2020/12/14 10:42:19;;;;;;;11.38;8.98;;;11.10;75.50;;;;;;4871738;28;87036;-82
2020/12/14 10:44:45;;;;;;;11.43;9.95;;;11.40;75.40;;;;;;4872860;28;87210;-82
2020/12/14 10:47:11;;;;;;;15.55;10.88;;;11.60;74.90;;;;;;4863084;29;86870;-82
2020/12/14 10:49:36;;;;;;;13.07;10.00;;;11.60;74.30;;;;;;4872564;29;86820;-82
2020/12/14 10:52:03;;;;;;;13.20;9.90;;;11.80;74.20;;;;;;4864415;28;87674;-82
2020/12/14 10:54:29;;;;;;;12.32;8.98;;;11.80;72.80;;;;;;4867576;28;87894;-82
2020/12/14 10:56:55;;;;;;;12.57;9.23;;;11.70;72.60;;;;;;4868532;28;87033;-82
2020/12/14 10:59:20;;;;;;;13.73;9.48;;;11.60;71.50;;;;;;4868006;29;86743;-82
2020/12/14 11:01:50;;;;;;;14.23;9.90;;;11.40;72.80;;;;;;4865024;28;86851;-82
2020/12/14 11:04:16;;;;;;;15.37;10.97;;;11.40;73.20;;;;;;4863334;29;86486;-82
2020/12/14 11:06:42;;;;;;;19.83;13.27;;;11.30;73.20;;;;;;4866384;28;86958;-82
2020/12/14 11:09:08;;;;;;;19.42;12.98;;;11.00;73.30;;;;;;4866733;29;85712;-85
2020/12/14 11:11:35;;;;;;;30.52;16.73;;;10.90;73.50;;;;;;4852420;29;86889;-83
2020/12/14 11:14:02;;;;;;;20.67;13.77;;;10.80;74.20;;;;;;4869488;28;86710;-83
2020/12/14 11:16:28;;;;;;;14.90;10.30;;;10.70;74.10;;;;;;4864523;28;87977;-82
2020/12/14 11:18:55;;;;;;;15.60;11.90;;;10.40;74.90;;;;;;4868755;28;87131;-84
2020/12/14 11:21:21;;;;;;;16.00;10.85;;;10.30;76.00;;;;;;4867841;29;87139;-82
2020/12/14 11:23:47;;;;;;;15.60;11.77;;;10.00;76.20;;;;;;4868562;29;86379;-82
2020/12/14 11:26:12;;;;;;;17.00;12.30;;;9.70;77.20;;;;;;4869620;28;86953;-82
2020/12/14 11:28:39;;;;;;;15.07;11.35;;;9.40;78.50;;;;;;4863641;29;87053;-82
2020/12/14 11:31:06;;;;;;;13.30;9.75;;;9.30;79.70;;;;;;4864109;28;87039;-82
2020/12/14 11:33:32;;;;;;;13.25;9.23;;;9.20;80.90;;;;;;4871794;28;87615;-83
2020/12/14 11:35:57;;;;;;;16.77;11.25;;;9.30;81.00;;;;;;4866020;28;87024;-83
2020/12/14 11:38:23;;;;;;;14.73;10.90;;;9.30;80.80;;;;;;4855206;29;87211;-82
2020/12/14 11:40:49;;;;;;;13.40;9.45;;;9.30;81.50;;;;;;4869510;28;88297;-82
2020/12/14 11:43:15;;;;;;;17.05;11.15;;;9.40;81.60;;;;;;4865415;29;88444;-83
2020/12/14 11:45:42;;;;;;;13.07;9.80;;;9.20;82.10;;;;;;4871313;28;86971;-83
2020/12/14 11:48:08;;;;;;;12.52;8.65;;;9.10;82.70;;;;;;4868810;28;86296;-82
2020/12/14 11:50:34;;;;;;;13.68;9.70;;;9.00;83.20;;;;;;4871469;28;88689;-82
2020/12/14 11:52:59;;;;;;;12.45;9.48;;;8.90;83.60;;;;;;4871811;28;87087;-82
2020/12/14 11:55:25;;;;;;;10.95;8.52;;;8.80;84.30;;;;;;4871674;29;87029;-82
2020/12/14 11:57:51;;;;;;;12.80;9.30;;;8.70;84.90;;;;;;4874938;28;86311;-83
2020/12/14 12:00:17;;;;;;;12.43;8.95;;;8.50;85.90;;;;;;4874334;28;87374;-84
2020/12/14 12:02:44;;;;;;;13.85;9.38;;;8.50;86.40;;;;;;4874049;29;87519;-83
2020/12/14 12:05:10;;;;;;;13.05;9.23;;;8.40;86.90;;;;;;4873204;29;87719;-82
2020/12/14 12:07:35;;;;;;;15.85;10.02;;;8.30;87.10;;;;;;4876801;28;86815;-80
2020/12/14 12:10:03;;;;;;;14.77;9.77;;;8.30;87.30;;;;;;4876429;28;88692;-82
2020/12/14 12:12:29;;;;;;;14.45;10.02;;;8.20;88.50;;;;;;4875389;28;87079;-80
2020/12/14 12:14:55;;;;;;;16.55;11.15;;;8.20;88.90;;;;;;4873232;28;86969;-80
2020/12/14 12:17:21;;;;;;;16.35;10.07;;;8.30;89.20;;;;;;4878121;28;86895;-80
2020/12/14 12:19:52;;;;;;;17.65;11.85;;;8.50;88.60;;;;;;4895446;28;87320;-80
2020/12/14 12:22:19;;;;;;;14.20;9.52;;;8.70;86.80;;;;;;4893613;28;87472;-79
2020/12/14 12:24:45;;;;;;;12.85;9.38;;;8.70;87.30;;;;;;4871984;29;86876;-79
2020/12/14 12:27:11;;;;;;;14.90;9.65;;;8.80;86.10;;;;;;4871832;28;86924;-81
2020/12/14 12:29:36;;;;;;;11.75;7.95;;;8.80;85.70;;;;;;4871161;28;89027;-79
2020/12/14 12:32:02;;;;;;;11.20;7.90;;;8.90;85.60;;;;;;4872023;28;88324;-77
2020/12/14 12:34:28;;;;;;;13.35;9.88;;;8.90;85.30;;;;;;4877121;28;87105;-77
2020/12/14 12:36:55;;;;;;;11.95;8.32;;;8.80;85.90;;;;;;4871341;28;86926;-80
2020/12/14 12:39:21;;;;;;;13.15;8.82;;;8.90;85.80;;;;;;4871173;29;87449;-79
2020/12/14 12:41:48;;;;;;;14.65;9.68;;;8.80;86.00;;;;;;4874583;28;87001;-79
2020/12/14 12:44:15;;;;;;;12.40;9.20;;;8.80;86.00;;;;;;4871177;29;86968;-77
2020/12/14 12:46:41;;;;;;;13.68;9.60;;;8.70;85.40;;;;;;4859948;29;85580;-81
2020/12/14 12:49:07;;;;;;;13.98;8.45;;;8.70;85.70;;;;;;4851784;29;86907;-80
2020/12/14 12:51:33;;;;;;;14.88;9.90;;;8.50;86.70;;;;;;4852796;29;87164;-80
2020/12/14 12:54:00;;;;;;;14.18;9.65;;;8.40;87.20;;;;;;4855797;29;87612;-80
2020/12/14 12:56:27;;;;;;;13.63;9.02;;;8.30;87.80;;;;;;4851564;29;87073;-78
2020/12/14 12:58:54;;;;;;;12.50;8.93;;;8.10;88.30;;;;;;4853050;29;87580;-80
2020/12/14 13:01:20;;;;;;;13.90;9.73;;;8.10;89.00;;;;;;4852405;29;87153;-79
2020/12/14 13:03:46;;;;;;;14.18;8.38;;;8.00;89.30;;;;;;4852323;29;86715;-80
2020/12/14 13:06:12;;;;;;;14.85;9.40;;;7.90;89.60;;;;;;4852207;29;87279;-79
2020/12/14 13:08:38;;;;;;;13.80;9.32;;;7.80;90.20;;;;;;4849790;29;86864;-79
2020/12/14 13:11:04;;;;;;;13.30;9.07;;;7.70;90.60;;;;;;4848678;29;87342;-79
2020/12/14 13:13:30;;;;;;;14.80;9.73;;;7.60;90.80;;;;;;4838606;29;86731;-80
2020/12/14 13:15:55;;;;;;;13.80;9.30;;;7.60;91.00;;;;;;4836619;29;87082;-81
2020/12/14 13:18:21;;;;;;;15.07;10.45;;;7.50;91.30;;;;;;4841632;29;89712;-80
2020/12/14 13:20:48;;;;;;;13.85;9.57;;;7.50;91.80;;;;;;4851798;29;87205;-79
2020/12/14 13:23:14;;;;;;;15.77;10.13;;;7.50;92.30;;;;;;4851256;29;86763;-80
2020/12/14 13:25:40;;;;;;;13.60;9.88;;;7.40;92.60;;;;;;4847920;29;87079;-80
2020/12/14 13:28:05;;;;;;;16.48;10.07;;;7.50;92.60;;;;;;4850107;29;86629;-79
2020/12/14 13:30:32;;;;;;;14.75;10.98;;;7.40;92.70;;;;;;4854480;29;87352;-81
2020/12/14 13:32:58;;;;;;;13.45;8.48;;;7.40;93.10;;;;;;4850178;29;87032;-78
2020/12/14 13:35:25;;;;;;;19.20;10.77;;;7.40;93.20;;;;;;4848942;29;86379;-79
2020/12/14 13:37:52;;;;;;;16.90;10.88;;;7.40;93.80;;;;;;4850640;29;87773;-80
2020/12/14 13:40:18;;;;;;;15.15;10.43;;;7.50;93.70;;;;;;4849932;29;87597;-80
2020/12/14 13:42:43;;;;;;;17.13;11.07;;;7.40;93.80;;;;;;4848516;29;87493;-80
2020/12/14 13:45:09;;;;;;;17.67;9.65;;;7.40;93.60;;;;;;4846642;29;86631;-83
2020/12/14 13:47:35;;;;;;;15.45;9.40;;;7.40;93.60;;;;;;4860374;28;87468;-79
2020/12/14 13:50:01;;;;;;;16.50;10.27;;;7.40;93.60;;;;;;4866826;29;88934;-82
2020/12/14 13:52:30;;;;;;;16.83;10.27;;;7.40;93.40;;;;;;4868678;28;86777;-83
2020/12/14 13:54:55;;;;;;;15.73;9.63;;;7.40;93.60;;;;;;4857853;28;87076;-82
2020/12/14 13:57:21;;;;;;;14.48;9.90;;;7.40;93.70;;;;;;4862193;28;88307;-82
2020/12/14 13:59:47;;;;;;;18.80;11.38;;;7.40;93.90;;;;;;4868242;29;86970;-81
2020/12/14 14:02:13;;;;;;;16.17;10.60;;;7.30;94.10;;;;;;4866618;28;86973;-82
2020/12/14 14:04:38;;;;;;;18.13;11.55;;;7.30;94.20;;;;;;4852860;29;86658;-80
2020/12/14 14:07:05;;;;;;;17.15;10.50;;;7.30;94.10;;;;;;4869632;29;87534;-83
2020/12/14 14:09:31;;;;;;;15.02;10.18;;;7.30;94.40;;;;;;4870571;29;87243;-83
2020/12/14 14:11:58;;;;;;;17.33;11.52;;;7.20;94.40;;;;;;4869816;29;86901;-80
2020/12/14 14:14:23;;;;;;;17.75;11.43;;;7.20;94.70;;;;;;4870197;29;86876;-81
2020/12/14 14:16:54;;;;;;;17.05;11.50;;;7.20;94.80;;;;;;4864356;29;88867;-80
2020/12/14 14:19:20;;;;;;;18.80;12.10;;;7.10;95.00;;;;;;4868649;29;86620;-80
2020/12/14 14:21:50;;;;;;;20.45;12.45;;;7.10;95.00;;;;;;4866573;29;86859;-83
2020/12/14 14:24:16;;;;;;;19.73;12.57;;;7.00;95.30;;;;;;4858351;28;86231;-81
2020/12/14 14:26:41;;;;;;;19.90;11.38;;;6.90;95.70;;;;;;4869379;29;87013;-81
2020/12/14 14:29:07;;;;;;;18.65;11.95;;;6.90;95.80;;;;;;4861055;29;86904;-82
2020/12/14 14:31:33;;;;;;;21.60;13.23;;;6.90;96.20;;;;;;4853007;28;87470;-80
2020/12/14 14:33:58;;;;;;;19.98;12.10;;;6.80;96.50;;;;;;4868750;28;87036;-80
2020/12/14 14:36:24;;;;;;;20.85;12.55;;;6.80;96.60;;;;;;4879903;28;86612;-81
2020/12/14 14:38:55;;;;;;;18.77;11.98;;;6.70;97.00;;;;;;4869492;29;87101;-79
2020/12/14 14:41:21;;;;;;;;;;;6.70;97.20;;;;;;4869685;29;86809;-77
2020/12/14 14:43:47;;;;;;;19.25;12.25;;;6.70;98.20;;;;;;4871577;29;86989;-80
2020/12/14 14:46:13;;;;;;;18.70;11.63;;;6.60;98.10;;;;;;4867973;29;87609;-81
2020/12/14 14:48:39;;;;;;;19.42;12.35;;;6.60;98.40;;;;;;4870700;28;87238;-79
2020/12/14 14:51:04;;;;;;;18.80;11.60;;;6.60;98.60;;;;;;4865984;29;86910;-81
2020/12/14 14:53:33;;;;;;;18.38;11.50;;;6.50;98.60;;;;;;4857669;29;87142;-79
2020/12/14 14:55:59;;;;;;;19.88;11.80;;;6.50;98.90;;;;;;4850365;29;90369;-81
2020/12/14 14:58:25;;;;;;;19.98;12.82;;;6.50;99.30;;;;;;4868795;29;89030;-82
2020/12/14 15:00:51;;;;;;;19.60;11.60;;;6.50;99.60;;;;;;4868740;29;87021;-81
2020/12/14 15:03:17;;;;;;;22.45;12.95;;;6.50;99.70;;;;;;4869213;29;86986;-81
2020/12/14 15:05:45;;;;;;;21.10;12.30;;;6.40;99.90;;;;;;4870965;29;88337;-81
2020/12/14 15:08:11;;;;;;;22.48;13.27;;;6.30;99.90;;;;;;4873335;29;86951;-81
2020/12/14 15:10:37;;;;;;;19.98;12.30;;;6.20;99.90;;;;;;4871783;29;87103;-80
2020/12/14 15:13:02;;;;;;;19.52;11.93;;;6.20;99.90;;;;;;4872296;28;86263;-79
2020/12/14 15:15:28;;;;;;;22.38;12.75;;;6.10;99.90;;;;;;4873176;29;87167;-80
2020/12/14 15:17:54;;;;;;;22.00;12.50;;;6.00;99.90;;;;;;4872994;29;86992;-80
2020/12/14 15:20:20;;;;;;;20.70;11.73;;;6.00;99.90;;;;;;4871548;29;87808;-80
2020/12/14 15:22:47;;;;;;;16.40;10.77;;;6.00;99.90;;;;;;4872703;29;86588;-81
2020/12/14 15:25:13;;;;;;;21.30;11.98;;;5.90;99.90;;;;;;4858150;29;86926;-80
2020/12/14 15:27:39;;;;;;;20.27;11.63;;;5.70;99.90;;;;;;4853404;28;87318;-81
2020/12/14 15:30:04;;;;;;;21.13;12.25;;;5.60;99.90;;;;;;4866015;29;86920;-81
2020/12/14 15:32:30;;;;;;;19.88;12.35;;;5.50;99.90;;;;;;4876228;29;86991;-80
2020/12/14 15:34:56;;;;;;;22.30;13.18;;;5.50;99.90;;;;;;4879587;29;86755;-81
2020/12/14 15:37:22;;;;;;;22.27;12.70;;;5.40;99.90;;;;;;4877016;29;86218;-81
2020/12/14 15:39:48;;;;;;;21.05;13.07;;;5.30;99.90;;;;;;4881259;28;87578;-80
2020/12/14 15:42:13;;;;;;;21.73;12.68;;;5.20;99.90;;;;;;4872655;29;86300;-79
2020/12/14 15:44:39;;;;;;;23.75;12.80;;;5.10;99.90;;;;;;4889756;29;88119;-78
2020/12/14 15:47:05;;;;;;;21.52;12.88;;;5.00;99.90;;;;;;4889247;29;87331;-78
2020/12/14 15:49:31;;;;;;;23.70;14.05;;;4.90;99.90;;;;;;4884687;28;86166;-81
2020/12/14 15:51:56;;;;;;;22.58;13.68;;;4.80;99.90;;;;;;4863098;29;87202;-80
2020/12/14 15:54:22;;;;;;;20.60;12.10;;;4.70;99.90;;;;;;4857822;29;86973;-81
2020/12/14 15:56:51;;;;;;;22.83;13.32;;;4.60;99.90;;;;;;4871697;28;86877;-80
2020/12/14 15:59:18;;;;;;;20.70;12.07;;;4.40;99.90;;;;;;4871134;29;86754;-80
2020/12/14 16:01:50;;;;;;;22.17;13.35;;;4.30;99.90;;;;;;4871649;29;86333;-81
2020/12/14 16:04:16;;;;;;;22.58;12.52;;;4.30;99.90;;;;;;4865419;29;86693;-79
2020/12/14 16:06:42;;;;;;;29.20;14.98;;;4.30;99.90;;;;;;4865250;29;87117;-77
2020/12/14 16:09:07;;;;;;;24.65;14.57;;;4.10;99.90;;;;;;4871703;29;87999;-81
2020/12/14 16:11:33;;;;;;;23.63;13.23;;;4.10;99.90;;;;;;4854121;29;87717;-81
2020/12/14 16:13:59;;;;;;;28.08;15.77;;;4.00;99.90;;;;;;4871897;29;86887;-80
2020/12/14 16:16:24;;;;;;;25.30;14.95;;;3.90;99.90;;;;;;4873121;28;87240;-81
2020/12/14 16:18:50;;;;;;;28.27;16.38;;;3.90;99.90;;;;;;4874826;29;86823;-79
2020/12/14 16:21:19;;;;;;;30.30;15.68;;;3.90;99.90;;;;;;4886462;29;86419;-80
2020/12/14 16:23:45;;;;;;;32.42;15.82;;;3.90;99.90;;;;;;4876813;29;88256;-80
2020/12/14 16:26:12;;;;;;;29.20;16.27;;;3.90;99.90;;;;;;4874101;29;86989;-80